Time;durP1;ratioP1;P1;durP2;ratioP2;P2;SDS_P1;SDS_P2;PMS_P1;PMS_P2;Temp;Humidity;BMP_temperature;BMP_pressure;BME280_temperature;BME280_humidity;BME280_pressure;Samples;Min_cycle;Max_cycle;Signal;HPM_P1;HPM_P2
2021/07/23 00:00:29;;;;;;;2.17;1.07;;;;;;;21.47;47.38;99028.59;3390933;29;20047;-69
2021/07/23 00:02:09;;;;;;;3.47;1.17;;;;;;;21.49;47.37;99040.00;3391152;29;20050;-69
2021/07/23 00:03:50;;;;;;;3.30;0.80;;;;;;;21.46;47.08;99026.19;3376970;29;20116;-69
2021/07/23 00:05:31;;;;;;;1.47;0.83;;;;;;;21.46;46.96;99037.03;3388016;29;20044;-70
2021/07/23 00:07:12;;;;;;;2.63;1.20;;;;;;;21.47;47.20;99030.50;3391233;29;20626;-70
2021/07/23 00:08:53;;;;;;;1.43;0.90;;;;;;;21.48;47.01;99034.88;3390917;29;20099;-69
2021/07/23 00:10:33;;;;;;;1.20;0.85;;;;;;;21.45;46.71;99035.41;3390695;29;20460;-69
2021/07/23 00:12:14;;;;;;;5.90;1.00;;;;;;;21.44;47.20;99037.31;3390984;29;20047;-69
2021/07/23 00:13:55;;;;;;;2.90;0.83;;;;;;;21.41;47.09;99035.16;3391016;29;20393;-70
2021/07/23 00:15:35;;;;;;;10.13;2.40;;;;;;;21.35;46.90;99031.66;3390797;29;20055;-70
2021/07/23 00:17:16;;;;;;;1.83;0.80;;;;;;;21.31;46.83;99032.50;3390853;29;20048;-68
2021/07/23 00:18:56;;;;;;;2.93;0.97;;;;;;;21.24;47.21;99034.69;3390887;29;20047;-70
2021/07/23 00:20:37;;;;;;;2.97;0.60;;;;;;;21.22;47.16;99037.72;3390675;29;20076;-70
2021/07/23 00:22:18;;;;;;;1.83;0.90;;;;;;;21.22;47.20;99035.00;3390500;29;20512;-71
2021/07/23 00:23:59;;;;;;;1.50;0.80;;;;;;;21.25;47.32;99031.72;3390540;29;20044;-68
2021/07/23 00:25:39;;;;;;;1.77;1.33;;;;;;;21.27;47.35;99026.84;3390762;29;20043;-69
2021/07/23 00:27:20;;;;;;;1.13;1.03;;;;;;;21.31;47.32;99033.31;3390702;29;20048;-70
2021/07/23 00:29:01;;;;;;;0.77;0.70;;;;;;;21.34;47.44;99027.31;3390695;29;20107;-70
2021/07/23 00:30:43;;;;;;;1.00;0.63;;;;;;;21.33;47.49;99016.78;3390694;29;20067;-70
2021/07/23 00:32:27;;;;;;;1.30;0.88;;;;;;;21.38;46.77;99034.91;3390553;29;20610;-70
2021/07/23 00:34:21;;;;;;;2.20;0.93;;;;;;;21.32;47.12;99032.22;3376950;29;20048;-70
2021/07/23 00:36:02;;;;;;;0.87;0.80;;;;;;;21.29;47.07;99035.47;3376506;29;20068;-69
2021/07/23 00:37:43;;;;;;;2.22;0.85;;;;;;;21.28;47.11;99033.88;3374036;29;20117;-70
2021/07/23 00:39:23;;;;;;;3.90;0.93;;;;;;;21.23;47.48;99038.53;3389475;29;20044;-70
2021/07/23 00:41:04;;;;;;;2.63;1.00;;;;;;;21.18;47.68;99023.09;3390185;29;20083;-70
2021/07/23 00:42:45;;;;;;;5.00;0.97;;;;;;;21.22;47.38;99021.44;3390759;29;20126;-71
2021/07/23 00:44:26;;;;;;;1.38;1.00;;;;;;;21.20;47.23;99022.81;3390502;29;20086;-70
2021/07/23 00:46:07;;;;;;;2.77;1.00;;;;;;;21.14;47.50;99022.03;3376580;29;20603;-70
2021/07/23 00:47:51;;;;;;;3.33;1.37;;;;;;;21.11;47.78;99020.69;3387817;29;20068;-69
2021/07/23 00:49:32;;;;;;;2.00;0.98;;;;;;;21.11;47.37;99019.88;3376396;29;20611;-69
2021/07/23 00:51:13;;;;;;;3.42;0.80;;;;;;;21.14;47.77;99024.72;3373940;29;20052;-69
2021/07/23 00:52:54;;;;;;;11.18;1.02;;;;;;;21.13;47.77;99023.13;3387728;29;20056;-69
2021/07/23 00:54:35;;;;;;;2.45;0.82;;;;;;;21.12;47.97;99016.09;3376206;29;20052;-70
2021/07/23 00:56:16;;;;;;;1.77;0.93;;;;;;;21.11;47.74;99020.69;3373848;29;20143;-70
2021/07/23 00:57:58;;;;;;;3.30;1.00;;;;;;;21.16;47.67;99019.84;3373885;29;20547;-69
2021/07/23 00:59:38;;;;;;;3.60;1.02;;;;;;;21.12;47.82;99016.09;3363312;29;20101;-69
2021/07/23 01:01:19;;;;;;;4.83;0.80;;;;;;;21.11;47.89;99014.47;3371285;29;20053;-68
2021/07/23 01:03:17;;;;;;;2.47;1.00;;;;;;;21.06;47.86;99011.78;3389933;29;20048;-71
2021/07/23 01:04:58;;;;;;;2.30;0.93;;;;;;;21.05;47.75;99013.69;3363431;29;20056;-68
2021/07/23 01:06:39;;;;;;;1.57;1.17;;;;;;;21.05;47.71;99016.41;3373716;29;20132;-69
2021/07/23 01:08:24;;;;;;;2.50;0.73;;;;;;;21.05;48.03;99010.16;3363311;29;20051;-68
2021/07/23 01:10:05;;;;;;;2.73;0.87;;;;;;;21.00;47.77;99013.72;3385252;29;20052;-69
2021/07/23 01:12:16;;;;;;;2.88;0.90;;;;;;;20.95;48.01;99013.75;3364300;29;20056;-69
2021/07/23 01:13:59;;;;;;;;;;;;;;;20.97;47.52;99014.28;3361306;29;20045;-68
2021/07/23 01:15:40;;;;;;;1.40;0.70;;;;;;;20.88;47.98;99005.09;3374006;29;19979;-68
2021/07/23 01:17:21;;;;;;;3.72;0.80;;;;;;;20.84;48.42;99010.28;3360886;29;20045;-69
2021/07/23 01:19:04;;;;;;;3.22;0.80;;;;;;;20.82;48.49;99006.22;3360670;29;20049;-68
2021/07/23 01:20:45;;;;;;;0.80;0.80;;;;;;;20.84;48.38;99001.34;3358357;29;20113;-70
2021/07/23 01:22:28;;;;;;;2.17;0.88;;;;;;;20.82;48.42;99003.53;3373660;29;20060;-69
2021/07/23 01:24:13;;;;;;;1.33;0.88;;;;;;;20.85;48.62;99001.06;3376043;29;20044;-70
2021/07/23 01:26:03;;;;;;;2.08;1.00;;;;;;;20.88;48.61;99002.41;3374604;29;20052;-71
2021/07/23 01:27:50;;;;;;;3.03;0.98;;;;;;;20.87;48.35;98993.47;3387694;29;20052;-69
2021/07/23 01:30:06;;;;;;;0.82;0.70;;;;;;;20.90;48.29;98990.19;3386752;29;20060;-70
2021/07/23 01:31:47;;;;;;;2.42;1.10;;;;;;;20.90;48.55;98990.19;3363079;29;20154;-70
2021/07/23 01:33:28;;;;;;;;;;;;;;;20.92;48.21;98990.72;3373850;29;20036;-68
2021/07/23 01:35:10;;;;;;;1.30;0.90;;;;;;;20.79;48.63;98991.34;3373425;29;19926;-69
2021/07/23 01:36:52;;;;;;;0.75;0.73;;;;;;;20.81;49.00;98991.06;3373749;29;20049;-68
2021/07/23 01:38:33;;;;;;;1.77;0.90;;;;;;;20.83;48.58;98987.00;3373116;29;20044;-69
2021/07/23 01:40:15;;;;;;;1.45;0.90;;;;;;;20.83;48.68;98988.88;3360356;29;20136;-68
2021/07/23 01:41:55;;;;;;;2.42;0.95;;;;;;;20.77;48.92;98993.53;3384452;29;20048;-69
2021/07/23 01:43:37;;;;;;;2.63;0.93;;;;;;;20.77;48.69;98990.00;3389673;29;20050;-70
2021/07/23 01:45:19;;;;;;;6.95;0.90;;;;;;;20.75;49.04;98987.56;3375910;29;20301;-69
2021/07/23 01:47:19;;;;;;;1.30;0.85;;;;;;;20.81;48.99;98994.59;3389566;29;20508;-68
2021/07/23 01:49:01;;;;;;;3.22;0.80;;;;;;;20.81;48.84;98996.50;3375566;29;20080;-68
2021/07/23 01:50:49;;;;;;;1.83;1.10;;;;;;;20.81;49.05;98991.88;3375748;29;20151;-69
2021/07/23 01:52:32;;;;;;;1.58;0.93;;;;;;;20.87;48.88;98987.25;3375867;29;20508;-70
2021/07/23 01:54:17;;;;;;;1.70;0.70;;;;;;;20.88;48.78;98984.25;3373789;29;20056;-70
2021/07/23 01:55:58;;;;;;;1.80;0.80;;;;;;;20.89;48.63;98977.75;3373191;29;20052;-70
2021/07/23 01:57:39;;;;;;;1.53;0.60;;;;;;;20.85;48.62;98981.28;3387069;29;20075;-70
2021/07/23 01:59:20;;;;;;;1.95;0.77;;;;;;;20.82;48.87;98988.06;3362630;29;20049;-68
2021/07/23 02:01:01;;;;;;;2.40;1.00;;;;;;;20.79;48.75;98985.94;3373071;29;20041;-70
2021/07/23 02:02:46;;;;;;;2.30;0.82;;;;;;;20.80;48.52;98990.25;3375680;29;20455;-68
2021/07/23 02:04:34;;;;;;;3.20;1.00;;;;;;;20.79;48.58;98985.94;3387545;29;20044;-69
2021/07/23 02:06:16;;;;;;;1.00;0.75;;;;;;;20.75;48.51;98984.84;3375490;29;20443;-70
2021/07/23 02:07:58;;;;;;;1.70;0.77;;;;;;;20.72;48.92;98980.00;3373272;29;20052;-69
2021/07/23 02:09:39;;;;;;;4.40;0.85;;;;;;;20.77;48.93;98985.38;3385942;29;20051;-70
2021/07/23 02:11:21;;;;;;;1.10;0.80;;;;;;;20.81;48.58;98982.97;3375281;29;20051;-68
2021/07/23 02:13:05;;;;;;;3.10;0.80;;;;;;;20.80;48.47;98981.31;3375207;29;20040;-69
2021/07/23 02:14:49;;;;;;;4.07;0.85;;;;;;;20.80;48.81;98982.13;3373432;29;20049;-70
2021/07/23 02:16:31;;;;;;;7.32;1.02;;;;;;;20.81;48.62;98982.97;3373046;29;20048;-71
2021/07/23 02:18:13;;;;;;;;;;;;;;;20.86;48.41;98983.72;3373268;29;20045;-67
2021/07/23 02:19:56;;;;;;;3.80;0.80;;;;;;;20.78;48.63;98978.06;3388182;29;20027;-70
2021/07/23 02:21:40;;;;;;;1.27;0.70;;;;;;;20.73;48.38;98976.22;3375035;29;20060;-71
2021/07/23 02:23:21;;;;;;;0.98;0.70;;;;;;;20.74;48.74;98977.03;3373072;29;20083;-69
2021/07/23 02:25:02;;;;;;;1.43;0.90;;;;;;;20.81;49.06;98977.53;3372625;29;20036;-69
2021/07/23 02:26:45;;;;;;;2.08;0.73;;;;;;;20.85;49.11;98973.16;3372937;29;20048;-69
2021/07/23 02:28:26;;;;;;;2.17;0.97;;;;;;;20.86;48.90;98975.59;3372631;29;20051;-69
2021/07/23 02:30:10;;;;;;;2.53;0.80;;;;;;;20.93;48.60;98980.69;3372875;29;20562;-69
2021/07/23 02:31:57;;;;;;;2.60;0.80;;;;;;;20.95;48.60;98972.31;3373546;29;20043;-68
2021/07/23 02:33:38;;;;;;;4.90;1.33;;;;;;;20.96;48.65;98971.19;3372552;29;20049;-69
2021/07/23 02:35:31;;;;;;;0.85;0.65;;;;;;;20.97;48.64;98967.41;3375103;29;20052;-69
2021/07/23 02:37:11;;;;;;;1.70;0.80;;;;;;;20.96;48.29;98969.31;3386469;29;20620;-69
2021/07/23 02:38:53;;;;;;;5.90;1.10;;;;;;;20.98;48.22;98971.72;3375161;29;20041;-69
2021/07/23 02:40:34;;;;;;;1.38;1.10;;;;;;;20.94;48.24;98970.69;3377166;29;20044;-69
2021/07/23 02:42:16;;;;;;;;;;;;;;;21.00;48.15;98969.56;3399779;29;20052;-68
2021/07/23 02:44:00;;;;;;;2.88;1.25;;;;;;;20.95;48.49;98966.88;3402098;29;19930;-68
2021/07/23 02:45:41;;;;;;;3.80;1.00;;;;;;;20.96;48.56;98963.06;3401133;29;20495;-69
2021/07/23 02:47:23;;;;;;;1.95;0.80;;;;;;;20.97;48.22;98970.13;3388022;29;20143;-68
2021/07/23 02:49:04;;;;;;;3.50;1.00;;;;;;;20.99;47.95;98967.91;3374840;29;20041;-69
2021/07/23 02:50:46;;;;;;;6.28;1.35;;;;;;;21.01;48.16;98954.91;3396835;29;20044;-69
2021/07/23 02:52:27;;;;;;;0.88;0.70;;;;;;;21.00;48.41;98959.53;3388029;29;20140;-69
2021/07/23 02:54:08;;;;;;;2.80;0.90;;;;;;;20.98;48.70;98955.47;3385589;29;20495;-71
2021/07/23 02:55:50;;;;;;;3.53;1.03;;;;;;;20.96;48.43;98952.22;3385600;29;20096;-69
2021/07/23 02:57:31;;;;;;;1.60;0.73;;;;;;;20.94;48.84;98960.66;3399130;29;20043;-68
2021/07/23 02:59:12;;;;;;;3.63;1.00;;;;;;;20.92;48.58;98952.00;3387975;29;20107;-68
2021/07/23 03:00:56;;;;;;;2.97;0.90;;;;;;;20.91;48.57;98950.38;3400801;29;20047;-68
2021/07/23 03:02:37;;;;;;;1.80;0.97;;;;;;;20.91;48.59;98953.91;3403159;29;20098;-69
2021/07/23 03:04:17;;;;;;;1.93;0.87;;;;;;;20.96;48.53;98953.06;3402056;29;20076;-68
2021/07/23 03:06:01;;;;;;;11.23;1.20;;;;;;;20.96;48.54;98949.53;3401937;29;20048;-68
2021/07/23 03:07:44;;;;;;;6.30;1.20;;;;;;;20.92;48.60;98958.22;3387805;29;20046;-69
2021/07/23 03:09:26;;;;;;;6.63;0.98;;;;;;;20.90;48.91;98949.56;3387806;29;20083;-68
2021/07/23 03:11:10;;;;;;;2.40;1.33;;;;;;;20.95;48.71;98950.63;3399369;29;20058;-69
2021/07/23 03:13:08;;;;;;;1.00;0.80;;;;;;;20.93;48.73;98945.47;3387725;29;20071;-69
2021/07/23 03:14:49;;;;;;;3.17;0.80;;;;;;;20.95;48.82;98945.22;3385334;29;20040;-69
2021/07/23 03:16:36;;;;;;;1.95;0.80;;;;;;;20.99;48.53;98947.09;3385768;29;20044;-68
2021/07/23 03:18:17;;;;;;;4.50;0.90;;;;;;;21.06;48.79;98941.31;3385052;29;20051;-69
2021/07/23 03:19:59;;;;;;;2.40;0.88;;;;;;;21.10;48.74;98939.69;3400720;29;20075;-68
2021/07/23 03:21:40;;;;;;;3.78;1.00;;;;;;;21.17;48.43;98933.94;3401263;29;20060;-69
2021/07/23 03:23:26;;;;;;;7.32;1.40;;;;;;;21.22;48.16;98933.88;3400832;29;20052;-70
2021/07/23 03:25:10;;;;;;;1.92;0.98;;;;;;;21.21;48.17;98930.38;3401580;29;20040;-68
2021/07/23 03:27:10;;;;;;;5.18;1.05;;;;;;;21.20;47.98;98925.25;3401751;29;20098;-67
2021/07/23 03:29:02;;;;;;;2.38;0.70;;;;;;;21.20;48.29;98926.06;3387588;29;20047;-68
2021/07/23 03:30:47;;;;;;;2.35;1.00;;;;;;;21.19;48.45;98921.72;3371832;29;20104;-69
2021/07/23 03:32:29;;;;;;;4.90;1.65;;;;;;;21.16;48.22;98925.00;3383257;29;20512;-68
2021/07/23 03:34:10;;;;;;;3.45;0.77;;;;;;;21.15;48.25;98925.28;3398033;29;20532;-68
2021/07/23 03:36:23;;;;;;;1.33;0.82;;;;;;;21.15;48.46;98922.59;3379574;29;20063;-71
2021/07/23 03:38:05;;;;;;;;;;;;;;;21.22;48.02;98917.63;3402149;29;20086;-69
2021/07/23 03:39:47;;;;;;;2.35;0.98;;;;;;;21.22;48.33;98915.75;3400919;29;20021;-68
2021/07/23 03:41:32;;;;;;;2.38;0.85;;;;;;;21.27;48.42;98915.72;3387226;29;20053;-70
2021/07/23 03:43:17;;;;;;;2.30;1.08;;;;;;;21.34;47.89;98910.75;3385490;29;20164;-68
2021/07/23 03:45:14;;;;;;;3.00;0.95;;;;;;;21.35;47.84;98904.25;3400486;29;20047;-69
2021/07/23 03:46:58;;;;;;;2.75;0.95;;;;;;;21.38;47.75;98905.63;3387470;29;20470;-69
2021/07/23 03:48:39;;;;;;;1.25;0.85;;;;;;;21.34;47.93;98899.09;3385046;29;20048;-70
2021/07/23 03:50:23;;;;;;;1.77;0.70;;;;;;;21.35;48.06;98906.97;3385083;29;20103;-68
2021/07/23 03:52:15;;;;;;;1.80;0.90;;;;;;;21.42;47.87;98908.56;3399590;29;20047;-69
2021/07/23 03:54:15;;;;;;;2.60;1.00;;;;;;;21.51;47.78;98901.44;3401380;29;20058;-70
2021/07/23 03:55:57;;;;;;;1.35;0.73;;;;;;;21.56;47.55;98907.59;3401379;29;20044;-69
2021/07/23 03:57:58;;;;;;;5.22;0.77;;;;;;;21.66;47.70;98909.41;3400887;29;20052;-70
2021/07/23 03:59:40;;;;;;;1.80;0.80;;;;;;;21.76;47.58;98905.75;3401512;29;20114;-69
2021/07/23 04:01:21;;;;;;;1.00;0.90;;;;;;;21.82;47.28;98903.84;3387319;29;20055;-69
2021/07/23 04:03:06;;;;;;;4.10;0.90;;;;;;;21.91;46.87;98907.50;3399213;29;20095;-68
2021/07/23 04:04:47;;;;;;;1.30;0.80;;;;;;;21.98;46.98;98906.06;3387634;29;20080;-69
2021/07/23 04:06:28;;;;;;;3.57;1.27;;;;;;;22.05;46.43;98900.31;3384759;29;20527;-68
2021/07/23 04:08:09;;;;;;;1.58;0.88;;;;;;;22.07;46.56;98894.56;3398703;29;20059;-69
2021/07/23 04:09:52;;;;;;;2.50;1.05;;;;;;;22.15;46.68;98899.34;3401462;29;20056;-69
2021/07/23 04:11:38;;;;;;;2.28;0.77;;;;;;;22.20;46.69;98897.44;3401207;29;20554;-70
2021/07/23 04:13:25;;;;;;;2.97;0.80;;;;;;;22.26;46.34;98900.09;3387456;29;20100;-69
2021/07/23 04:15:09;;;;;;;2.83;0.80;;;;;;;22.27;46.30;98901.69;3384829;29;20088;-71
2021/07/23 04:17:04;;;;;;;0.93;0.70;;;;;;;22.34;46.34;98894.00;3386729;29;20535;-69
2021/07/23 04:18:45;;;;;;;1.60;0.93;;;;;;;22.43;46.09;98892.25;3397721;29;20044;-69
2021/07/23 04:20:44;;;;;;;1.90;0.90;;;;;;;22.51;45.95;98897.03;3387133;29;20044;-69
2021/07/23 04:22:26;;;;;;;2.97;1.08;;;;;;;22.57;45.91;98892.34;3387695;29;20043;-70
2021/07/23 04:24:15;;;;;;;3.58;0.93;;;;;;;22.63;45.88;98886.53;3388185;29;20135;-70
2021/07/23 04:25:56;;;;;;;3.83;1.10;;;;;;;22.73;45.58;98887.50;3388355;29;20500;-69
2021/07/23 04:27:39;;;;;;;0.77;0.63;;;;;;;22.77;45.50;98893.94;3387285;29;20048;-69
2021/07/23 04:29:31;;;;;;;3.53;1.08;;;;;;;22.78;45.21;98882.78;3387242;29;20058;-69
2021/07/23 04:31:12;;;;;;;3.28;1.20;;;;;;;22.81;45.37;98887.63;3387028;29;20048;-69
2021/07/23 04:33:13;;;;;;;2.35;1.05;;;;;;;22.80;45.23;98879.78;3387130;29;20040;-69
2021/07/23 04:35:05;;;;;;;6.10;1.05;;;;;;;22.81;44.97;98884.91;3385884;29;20606;-69
2021/07/23 04:36:46;;;;;;;2.85;0.85;;;;;;;22.77;45.15;98886.63;3387203;29;20052;-68
2021/07/23 04:38:42;;;;;;;9.98;1.38;;;;;;;22.70;45.53;98880.75;3386641;29;20048;-69
2021/07/23 04:40:24;;;;;;;6.50;0.98;;;;;;;22.64;45.54;98885.44;3387239;29;20598;-70
2021/07/23 04:42:06;;;;;;;;;;;;;;;22.67;45.63;98881.34;3372993;29;20069;-68
2021/07/23 04:43:47;;;;;;;1.63;1.20;;;;;;;22.59;45.23;98885.53;3387922;29;20397;-71
2021/07/23 04:45:28;;;;;;;1.80;0.87;;;;;;;22.55;45.50;98887.19;3390542;29;20040;-69
2021/07/23 04:47:17;;;;;;;4.18;0.93;;;;;;;22.53;45.78;98883.97;3402461;29;20044;-69
2021/07/23 04:49:00;;;;;;;1.50;1.10;;;;;;;22.52;45.65;98874.22;3389459;29;20044;-69
2021/07/23 04:50:50;;;;;;;8.45;1.45;;;;;;;22.48;45.78;98878.59;3387710;29;20156;-69
2021/07/23 04:52:57;;;;;;;3.92;1.58;;;;;;;22.49;45.93;98869.38;3382093;29;20060;-72
2021/07/23 04:55:12;;;;;;;2.92;0.98;;;;;;;22.46;45.71;98861.81;3368449;29;20056;-69
2021/07/23 04:57:17;;;;;;;1.33;0.80;;;;;;;22.48;45.74;98865.03;3389627;29;20052;-68
2021/07/23 04:58:59;;;;;;;3.70;1.00;;;;;;;22.48;45.69;98867.72;3390339;29;20048;-68
2021/07/23 05:00:40;;;;;;;5.60;1.20;;;;;;;22.46;45.75;98863.69;3387643;29;20032;-71
2021/07/23 05:02:23;;;;;;;15.87;1.30;;;;;;;22.44;45.99;98866.72;3378262;29;20044;-70
2021/07/23 05:04:04;;;;;;;3.40;1.00;;;;;;;22.39;45.93;98864.88;3376234;29;20133;-70
2021/07/23 05:05:45;;;;;;;3.95;1.52;;;;;;;22.34;46.19;98856.00;3376127;29;20091;-70
2021/07/23 05:07:26;;;;;;;3.28;1.17;;;;;;;22.35;45.98;98863.03;3374083;29;20527;-69
2021/07/23 05:09:07;;;;;;;3.63;1.30;;;;;;;22.33;46.16;98854.38;3373778;29;20052;-70
2021/07/23 05:10:51;;;;;;;1.58;1.23;;;;;;;22.32;45.85;98852.75;3376127;29;20107;-70
2021/07/23 05:12:32;;;;;;;2.73;1.30;;;;;;;22.32;46.04;98852.75;3373312;29;20072;-70
2021/07/23 05:14:13;;;;;;;5.13;1.40;;;;;;;22.31;46.25;98851.97;3377020;29;20049;-70
2021/07/23 05:15:54;;;;;;;4.23;1.67;;;;;;;22.35;46.23;98854.88;3379286;29;20033;-70
2021/07/23 05:17:35;;;;;;;3.93;1.33;;;;;;;22.37;45.93;98844.56;3373602;29;20068;-69
2021/07/23 05:19:16;;;;;;;2.13;1.13;;;;;;;22.42;45.82;98848.00;3376798;29;20048;-71
2021/07/23 05:20:57;;;;;;;3.57;1.20;;;;;;;22.47;46.02;98844.41;3376990;29;20060;-69
2021/07/23 05:22:38;;;;;;;16.13;1.90;;;;;;;22.52;45.82;98847.03;3389309;29;20068;-68
2021/07/23 05:24:20;;;;;;;7.65;1.50;;;;;;;22.57;46.18;98844.25;3389919;29;20044;-69
2021/07/23 05:26:05;;;;;;;7.75;1.67;;;;;;;22.61;46.28;98831.72;3394143;29;20050;-69
2021/07/23 05:27:45;;;;;;;3.13;1.40;;;;;;;22.64;46.19;98828.41;3391086;29;20099;-69
2021/07/23 05:29:27;;;;;;;11.90;1.90;;;;;;;22.68;46.37;98825.91;3389896;29;20044;-69
2021/07/23 05:31:08;;;;;;;9.80;1.73;;;;;;;22.72;46.07;98834.25;3389715;29;20142;-68
2021/07/23 05:32:48;;;;;;;3.67;1.30;;;;;;;22.72;46.12;98828.81;3390351;29;20197;-68
2021/07/23 05:34:29;;;;;;;18.97;2.40;;;;;;;22.73;46.11;98831.25;3375388;29;20140;-68
2021/07/23 05:36:10;;;;;;;12.10;2.23;;;;;;;22.77;46.13;98820.59;3395180;29;20131;-68
2021/07/23 05:37:51;;;;;;;10.93;1.90;;;;;;;22.78;46.05;98823.00;3401084;29;20113;-69
2021/07/23 05:39:31;;;;;;;4.27;1.20;;;;;;;22.84;46.04;98829.97;3402622;29;20040;-68
2021/07/23 05:41:12;;;;;;;6.23;1.47;;;;;;;22.87;46.02;98820.41;3394825;29;20052;-70
2021/07/23 05:42:53;;;;;;;9.50;1.90;;;;;;;22.92;46.15;98814.91;3389593;29;20051;-69
2021/07/23 05:44:34;;;;;;;5.93;1.30;;;;;;;22.93;46.04;98811.09;3389684;29;20044;-70
2021/07/23 05:46:15;;;;;;;4.47;1.63;;;;;;;22.90;45.86;98808.97;3389534;29;20075;-70
2021/07/23 05:47:56;;;;;;;7.47;1.97;;;;;;;22.93;46.13;98808.38;3389543;29;20140;-68
2021/07/23 05:49:36;;;;;;;23.93;5.90;;;;;;;22.94;46.16;98809.97;3389526;29;20043;-70
2021/07/23 05:51:17;;;;;;;28.73;6.27;;;;;;;22.94;45.96;98807.25;3380541;29;20047;-69
2021/07/23 05:52:58;;;;;;;28.90;6.97;;;;;;;22.96;45.86;98796.91;3399401;29;20411;-69
2021/07/23 05:54:38;;;;;;;23.77;4.87;;;;;;;22.96;45.63;98805.06;3389345;29;20397;-69
2021/07/23 05:56:19;;;;;;;20.43;4.73;;;;;;;22.94;45.72;98799.09;3389473;29;20051;-69
2021/07/23 05:58:00;;;;;;;24.50;4.63;;;;;;;23.02;45.77;98800.38;3389206;29;20512;-70
2021/07/23 05:59:40;;;;;;;21.57;4.53;;;;;;;23.11;45.46;98804.03;3389600;29;20531;-70
2021/07/23 06:01:21;;;;;;;13.20;3.77;;;;;;;23.23;45.21;98803.53;3384523;29;20507;-71
2021/07/23 06:03:03;;;;;;;17.30;3.10;;;;;;;23.33;45.01;98800.63;3385580;29;20040;-70
2021/07/23 06:04:43;;;;;;;12.50;3.33;;;;;;;23.46;44.98;98793.56;3390321;29;20044;-70
2021/07/23 06:06:24;;;;;;;11.63;3.20;;;;;;;23.55;45.05;98794.50;3389407;29;20036;-68
2021/07/23 06:08:05;;;;;;;9.57;3.00;;;;;;;23.65;44.62;98796.22;3389200;29;20139;-70
2021/07/23 06:09:46;;;;;;;11.48;2.30;;;;;;;23.67;44.14;98791.25;3375477;29;20048;-69
2021/07/23 06:11:27;;;;;;;8.80;2.33;;;;;;;23.67;44.19;98783.94;3388845;29;20135;-70
2021/07/23 06:13:08;;;;;;;14.67;2.03;;;;;;;23.70;44.14;98787.97;3401997;29;20132;-69
2021/07/23 06:14:48;;;;;;;5.97;1.93;;;;;;;23.75;44.22;98790.59;3399282;29;20036;-70
2021/07/23 06:16:29;;;;;;;7.97;2.20;;;;;;;23.76;44.03;98784.03;3392448;29;20044;-70
2021/07/23 06:18:10;;;;;;;6.33;1.83;;;;;;;23.81;44.30;98796.75;3397718;29;20046;-70
2021/07/23 06:19:50;;;;;;;7.17;1.60;;;;;;;23.82;44.21;98796.41;3400433;29;20043;-68
2021/07/23 06:21:31;;;;;;;4.83;1.67;;;;;;;23.78;44.08;98781.84;3392827;29;20056;-71
2021/07/23 06:23:12;;;;;;;5.57;1.67;;;;;;;23.77;44.04;98784.84;3389123;29;20044;-69
2021/07/23 06:24:55;;;;;;;4.97;1.33;;;;;;;23.75;44.19;98785.16;3389011;29;20130;-71
2021/07/23 06:26:36;;;;;;;11.05;2.53;;;;;;;23.70;43.82;98782.50;3388776;29;20444;-70
2021/07/23 06:28:17;;;;;;;8.95;2.53;;;;;;;23.70;43.98;98783.31;3367207;29;20041;-71
2021/07/23 06:29:58;;;;;;;6.43;2.07;;;;;;;23.65;44.22;98777.97;3396576;29;20138;-70
2021/07/23 06:31:40;;;;;;;9.73;1.20;;;;;;;23.73;44.22;98779.22;3394223;29;20111;-69
2021/07/23 06:33:20;;;;;;;6.77;1.37;;;;;;;23.74;44.04;98778.09;3398947;29;20044;-70
2021/07/23 06:35:01;;;;;;;9.00;2.00;;;;;;;23.75;44.07;98778.91;3400821;29;20503;-70
2021/07/23 06:36:42;;;;;;;6.37;1.43;;;;;;;23.80;44.04;98782.34;3399672;29;20095;-70
2021/07/23 06:38:23;;;;;;;7.90;1.40;;;;;;;23.92;43.93;98774.44;3391392;29;20112;-70
2021/07/23 06:40:04;;;;;;;11.43;1.98;;;;;;;24.15;43.92;98777.22;3374801;29;20123;-69
2021/07/23 06:41:45;;;;;;;8.40;1.73;;;;;;;24.28;43.48;98781.81;3396674;29;20131;-69
2021/07/23 06:43:26;;;;;;;6.53;1.83;;;;;;;24.42;43.27;98781.78;3389041;29;20047;-70
2021/07/23 06:45:08;;;;;;;5.70;1.73;;;;;;;24.53;43.15;98774.19;3392197;29;20058;-70
2021/07/23 06:46:49;;;;;;;3.75;1.60;;;;;;;24.59;42.72;98770.22;3374572;29;20095;-71
2021/07/23 06:48:30;;;;;;;12.17;2.23;;;;;;;24.58;42.87;98763.97;3385815;29;20515;-70
2021/07/23 06:50:11;;;;;;;6.40;2.27;;;;;;;24.68;43.12;98773.00;3388783;29;20052;-68
2021/07/23 06:51:52;;;;;;;8.48;1.80;;;;;;;24.71;42.86;98766.97;3393729;29;20040;-70
2021/07/23 06:53:33;;;;;;;7.80;1.53;;;;;;;24.81;42.52;98775.69;3400609;29;20054;-69
2021/07/23 06:55:15;;;;;;;11.20;1.97;;;;;;;24.88;42.79;98767.03;3392037;29;20420;-69
2021/07/23 06:56:56;;;;;;;10.73;1.58;;;;;;;24.97;42.60;98765.19;3412427;28;20055;-69
2021/07/23 06:58:37;;;;;;;7.93;1.50;;;;;;;25.10;42.72;98766.22;3413665;28;20407;-69
2021/07/23 07:00:18;;;;;;;6.80;1.13;;;;;;;25.28;41.99;98758.16;3407625;28;20042;-70
2021/07/23 07:02:01;;;;;;;4.13;1.20;;;;;;;25.52;42.12;98755.00;3387562;29;20059;-70
2021/07/23 07:03:42;;;;;;;14.60;1.90;;;;;;;25.71;41.59;98752.00;3385587;29;20054;-70
2021/07/23 07:05:24;;;;;;;12.67;1.87;;;;;;;25.81;41.30;98759.91;3398428;29;20070;-70
2021/07/23 07:07:08;;;;;;;10.07;2.40;;;;;;;25.85;41.55;98752.72;3373899;29;20611;-70
2021/07/23 07:08:49;;;;;;;9.30;1.75;;;;;;;25.88;41.57;98743.88;3395358;29;20055;-69
2021/07/23 07:10:30;;;;;;;9.15;2.88;;;;;;;26.04;41.18;98744.22;3402748;29;20086;-71
2021/07/23 07:12:11;;;;;;;7.43;2.30;;;;;;;26.18;40.91;98742.16;3406246;28;20031;-71
2021/07/23 07:13:52;;;;;;;7.50;2.20;;;;;;;26.29;40.76;98743.44;3412758;28;20051;-70
2021/07/23 07:15:34;;;;;;;9.18;3.20;;;;;;;26.40;40.62;98732.97;3405424;28;20040;-71
2021/07/23 07:17:18;;;;;;;12.98;2.45;;;;;;;26.40;40.45;98738.44;3401552;29;20046;-71
2021/07/23 07:18:59;;;;;;;14.02;3.78;;;;;;;26.42;40.08;98732.66;3400403;29;20547;-70
2021/07/23 07:20:41;;;;;;;9.53;2.73;;;;;;;26.48;40.35;98736.81;3399990;28;20047;-73
2021/07/23 07:22:23;;;;;;;;;;;;;;;26.63;40.05;98727.34;3396827;29;20079;-71
2021/07/23 07:24:05;;;;;;;7.93;1.88;;;;;;;26.72;40.19;98734.41;3400702;28;19923;-70
2021/07/23 07:25:46;;;;;;;10.18;2.15;;;;;;;26.78;40.12;98723.31;3398921;29;20130;-71
2021/07/23 07:27:27;;;;;;;15.33;2.83;;;;;;;26.89;39.53;98719.09;3398850;28;20530;-72
2021/07/23 07:29:07;;;;;;;13.40;2.50;;;;;;;26.97;39.76;98729.19;3396809;29;20046;-68
2021/07/23 07:30:48;;;;;;;43.40;6.10;;;;;;;26.96;39.62;98720.19;3400598;29;20039;-68
2021/07/23 07:32:29;;;;;;;19.57;3.60;;;;;;;27.01;40.11;98724.69;3400368;29;20487;-69
2021/07/23 07:34:10;;;;;;;9.07;2.57;;;;;;;27.07;40.11;98717.88;3393064;29;20040;-71
2021/07/23 07:35:52;;;;;;;10.75;2.38;;;;;;;27.21;39.72;98723.19;3400190;29;20047;-70
2021/07/23 07:37:35;;;;;;;5.40;2.00;;;;;;;27.28;39.78;98719.94;3395420;29;20048;-70
2021/07/23 07:39:34;;;;;;;8.17;2.13;;;;;;;27.26;39.72;98720.28;3390896;28;20543;-72
2021/07/23 07:41:21;;;;;;;12.35;2.15;;;;;;;27.22;39.72;98719.31;3392894;29;20188;-71
2021/07/23 07:43:01;;;;;;;7.07;2.97;;;;;;;27.21;40.30;98716.88;3392477;29;20456;-69
2021/07/23 07:44:46;;;;;;;16.63;2.67;;;;;;;27.11;39.82;98713.38;3395049;29;20135;-70
2021/07/23 07:46:27;;;;;;;14.77;2.85;;;;;;;27.08;39.91;98714.03;3392750;29;20046;-71
2021/07/23 07:48:08;;;;;;;14.57;4.00;;;;;;;27.12;40.44;98716.91;3392756;29;20039;-69
2021/07/23 07:49:50;;;;;;;24.13;4.00;;;;;;;27.13;40.47;98719.31;3392829;29;20075;-71
2021/07/23 07:51:30;;;;;;;11.05;3.20;;;;;;;27.07;40.24;98711.63;3391137;29;20040;-70
2021/07/23 07:53:12;;;;;;;5.15;2.45;;;;;;;26.99;40.14;98716.00;3379630;29;20175;-69
2021/07/23 07:54:55;;;;;;;8.57;3.83;;;;;;;26.91;40.90;98709.41;3391660;29;20047;-71
2021/07/23 07:56:36;;;;;;;13.52;3.42;;;;;;;26.87;41.02;98713.94;3390924;29;20303;-70
2021/07/23 07:58:17;;;;;;;8.88;2.88;;;;;;;26.88;40.69;98707.34;3394675;29;20036;-70
2021/07/23 07:59:57;;;;;;;4.77;2.40;;;;;;;26.83;40.50;98707.53;3393300;29;20048;-69
2021/07/23 08:01:38;;;;;;;10.23;3.13;;;;;;;26.76;40.94;98701.75;3393881;29;20099;-70
2021/07/23 08:03:19;;;;;;;8.67;2.60;;;;;;;26.68;40.87;98708.03;3385942;29;20043;-72
2021/07/23 08:04:59;;;;;;;11.37;2.30;;;;;;;26.57;40.82;98717.72;3394316;29;20187;-70
2021/07/23 08:06:42;;;;;;;15.67;1.97;;;;;;;26.45;40.33;98705.47;3394332;29;20066;-71